« 定点 富山空港 2014/10/2 thu | トップページ | ある日2 成田国際空港 2014/9/10 wed »

2014/10/05

ある日1 成田国際空港 2014/9/10 wed

雨の日曜は、久しぶり。たまった画像をっと、お蔵入りかと思った成田を記録しておく。なんとか一ヶ月以内で収まった。

RJAA 100230Z 16005KT 120V190 9999 FEW015 BKN035 24/19 Q1011 NOSIG RMK 2CU015 7SC035 A2985

20140910_rjaa_00tcjjo

THY51 RJAA-LTBA TC-JJO B777-3F2ER

RJAA 100300Z 13008KT 100V160 9999 SCT020 BKN035 25/17 Q1010 NOSIG RMK 3CU020 7SC035 A2985

20140910_rjaa_01hl8296

JJA1101 RJAA-RKSI HL8296 B737-82R

20140910_rjaa_02hstgz

20140910_rjaa_03hstgz

THI643 RJAA-VTBS HS-TGZ B747-4D7

20140910_rjaa_04a9votb

SCO201 RJAA-RCTP 9V-OTB B777-212ER

20140910_rjaa_05vqbmv

AFL261 RJAA-UUEE VQ-BMV A330-343X

20140910_rjaa_06a6eha

20140910_rjaa_07a6eha

ETD878 OMAA-RJAA A6-EHA A340-541

20140910_rjaa_08pkgif

GIA885 RJAA-WIII PK-GIF B777-3U3ER

20140910_rjaa_09fojse

20140910_rjaa_10fojse

ACI801 RJAA-NWWW F-OJSE A330-202

20140910_rjaa_11n78003

UAL1 KIAH-RJAA N78003 B777-224ER

20140910_rjaa_12n865da

DAL296 ZSPD-RJAA N865DA B777-232ER

20140910_rjaa_13ja10an

ANA943 RJAA-VABB JA10AN B737-781ER

20140910_rjaa_14n619fe

FDX195 PANC-RJAA N619FE MD-11F

20140910_rjaa_15ja707j

20140910_rjaa_16ja707j

JAL749 RJAA-VIDP JA707J B777-246ER

20140910_rjaa_17hl7421

AAR101 RJAA-RKSI HL7421 B747-48E

20140910_rjaa_18hl7761

ABL112 RKPK-RJAA HL7761 A321-131

20140910_rjaa_19n666us

DAL172 RPLL-RJAA N666US B747-451

20140910_rjaa_20n546us

DAL634 PGUM-RJAA N546US B757-251

20140910_rjaa_21a9mmub

MAS6193 RJAA-WMKP 9M-MUB A330-223F

20140910_rjaa_22b16309

EVA198 RCTP-RJAA B-16309 A330-203

20140910_rjaa_23ja607a

ANA1084 RCTP-RJAA JA607A B767-381ER

RJAA 100400Z 12005KT 070V160 9999 FEW020 BKN040 26/18 Q1010 NOSIG RMK 1CU020 5SC040 A2983

20140910_rjaa_24b16207

EVA107 RJAA-RCKH B-16207 A321-211

20140910_rjaa_25n671us

DAL276 RCTP-RJAA N671US B747-451

20140910_rjaa_26hl7719

KAL716 RJAA-RKPK HL7719 B737-9B5

20140910_rjaa_27ja624a

ANA918 VIDP-RJAA JA624A B767-381ER

20140910_rjaa_28eiddh

AZA789 RJAA-LIPZ EI-DDH B777-243ER

20140910_rjaa_29n69020

UAL79 KEWR-RJAA N69020 B777-224ER

20140910_rjaa_30n127ua

UAL879 PHNL-RJAA N127UA B747-422

20140910_rjaa_31vhehj

JST24 RJAA-YMML VH-EBJ A330-201

20140910_rjaa_32eidbl

AZA785 RJAA-LIRF EI-DBL B777-243ER

20140910_rjaa_33ja8323

ANA8442 RCTP-RJAA JA8323 B767-381ER

20140910_rjaa_34b2409

20140910_rjaa_35b2409

CAO1074 RJAA-ZSPD B2409 B747-412F

その2へつづく・・・

|

« 定点 富山空港 2014/10/2 thu | トップページ | ある日2 成田国際空港 2014/9/10 wed »

成田国際空港」カテゴリの記事

コメント

コメントを書く



(ウェブ上には掲載しません)


コメントは記事投稿者が公開するまで表示されません。



トラックバック


この記事へのトラックバック一覧です: ある日1 成田国際空港 2014/9/10 wed:

« 定点 富山空港 2014/10/2 thu | トップページ | ある日2 成田国際空港 2014/9/10 wed »